Time;durP1;ratioP1;P1;durP2;ratioP2;P2;SDS_P1;SDS_P2;PMS_P1;PMS_P2;Temp;Humidity;BMP_temperature;BMP_pressure;BME280_temperature;BME280_humidity;BME280_pressure;Samples;Min_cycle;Max_cycle;Signal;HPM_P1;HPM_P2
2021/12/20 00:01:14;;;;;;;2.20;1.58;;;;;;;-6.54;92.57;100021.56;5045464;28;20037;-73
2021/12/20 00:03:39;;;;;;;1.83;1.40;;;;;;;-6.56;92.02;100023.59;5063611;28;20414;-73
2021/12/20 00:06:05;;;;;;;1.50;1.23;;;;;;;-6.56;92.21;100028.94;5052270;28;20040;-73
2021/12/20 00:08:31;;;;;;;2.05;1.30;;;;;;;-6.58;92.00;100025.63;5057086;28;20124;-73
2021/12/20 00:10:56;;;;;;;1.30;1.13;;;;;;;-6.61;91.58;100033.97;5046419;28;20044;-74
2021/12/20 00:13:23;;;;;;;2.13;0.68;;;;;;;-6.61;91.64;100055.31;5041298;28;20385;-74
2021/12/20 00:15:49;;;;;;;2.33;1.30;;;;;;;-6.61;91.61;100049.97;5044925;28;20083;-74
2021/12/20 00:18:14;;;;;;;1.70;1.40;;;;;;;-6.64;91.68;100049.53;5048144;28;20041;-73
2021/12/20 00:20:40;;;;;;;1.70;1.17;;;;;;;-6.66;91.63;100049.72;5045201;28;20037;-72
2021/12/20 00:23:05;;;;;;;2.03;1.42;;;;;;;-6.67;91.59;100058.72;5043977;28;20495;-74
2021/12/20 00:25:32;;;;;;;1.60;1.33;;;;;;;-6.67;91.56;100074.75;5052775;28;20063;-73
2021/12/20 00:27:57;;;;;;;1.42;0.95;;;;;;;-6.72;91.29;100067.28;5055919;28;20406;-74
2021/12/20 00:30:23;;;;;;;1.77;1.20;;;;;;;-6.78;90.90;100060.00;5046229;28;20045;-73
2021/12/20 00:32:48;;;;;;;2.67;1.30;;;;;;;-6.83;90.29;100081.06;5049892;28;20033;-73
2021/12/20 00:35:17;;;;;;;2.78;1.23;;;;;;;-6.87;90.48;100081.63;5052676;28;20052;-73
2021/12/20 00:40:28;;;;;;;1.40;1.00;;;;;;;-6.90;90.61;100084.66;5038678;28;20125;-73
2021/12/20 00:42:56;;;;;;;1.48;1.17;;;;;;;-6.92;90.76;100100.84;5038385;28;20132;-73
2021/12/20 00:45:23;;;;;;;0.68;0.68;;;;;;;-6.96;90.67;100110.19;5036541;28;20045;-73
2021/12/20 00:47:49;;;;;;;1.08;0.88;;;;;;;-6.95;90.56;100103.03;5055914;28;20059;-73
2021/12/20 00:50:16;;;;;;;1.20;0.98;;;;;;;-6.97;91.14;100103.22;5060805;28;20399;-73
2021/12/20 00:52:43;;;;;;;0.63;0.63;;;;;;;-6.97;91.22;100105.88;5038169;28;20037;-73
2021/12/20 00:55:09;;;;;;;1.20;1.10;;;;;;;-6.97;91.20;100105.88;5039737;28;20066;-73
2021/12/20 00:57:35;;;;;;;1.25;0.90;;;;;;;-7.01;90.75;100126.75;5042813;28;20700;-72
2021/12/20 01:00:02;;;;;;;1.08;0.90;;;;;;;-7.04;90.53;100111.13;5039967;28;20041;-74
2021/12/20 01:02:28;;;;;;;1.45;0.85;;;;;;;-7.09;90.83;100134.81;5039547;28;20038;-73
2021/12/20 01:04:53;;;;;;;1.25;0.63;;;;;;;-7.19;92.31;100170.72;5039829;28;20045;-72
2021/12/20 01:07:19;;;;;;;0.73;0.60;;;;;;;-7.23;92.30;100151.59;5037740;28;20064;-72
2021/12/20 01:09:45;;;;;;;0.77;0.77;;;;;;;-7.30;92.15;100154.13;5055323;28;20036;-73
2021/12/20 01:12:17;;;;;;;1.83;1.10;;;;;;;-7.34;92.22;100162.66;5044981;28;20446;-72
2021/12/20 01:14:43;;;;;;;1.55;0.80;;;;;;;-7.35;92.14;100155.66;5052770;28;20053;-73
2021/12/20 01:17:09;;;;;;;2.03;0.90;;;;;;;-7.39;91.88;100157.88;5044362;28;20038;-73
2021/12/20 01:19:36;;;;;;;0.90;0.75;;;;;;;-7.43;91.59;100150.41;5046937;28;20156;-73
2021/12/20 01:22:03;;;;;;;2.17;1.38;;;;;;;-7.44;91.20;100173.56;5059995;28;20115;-73
2021/12/20 01:24:29;;;;;;;1.23;0.90;;;;;;;-7.48;91.13;100174.91;5053713;28;20128;-73
2021/12/20 01:26:54;;;;;;;1.50;1.00;;;;;;;-7.50;91.07;100189.41;5041902;28;20120;-72
2021/12/20 01:29:20;;;;;;;1.38;0.98;;;;;;;-7.51;90.56;100183.25;5041290;28;20131;-72
2021/12/20 01:31:46;;;;;;;1.73;1.08;;;;;;;-7.53;90.67;100195.91;5044383;28;20044;-72
2021/12/20 01:34:11;;;;;;;2.47;1.20;;;;;;;-7.57;90.48;100194.63;5049687;28;20040;-73
2021/12/20 01:36:37;;;;;;;0.63;0.63;;;;;;;-7.58;90.68;100205.44;5040082;28;20076;-73
2021/12/20 01:39:04;;;;;;;2.83;1.10;;;;;;;-7.64;90.52;100220.28;5039215;28;20041;-73
2021/12/20 01:41:30;;;;;;;1.45;0.90;;;;;;;-7.69;91.07;100202.16;5046255;28;20029;-73
2021/12/20 01:43:55;;;;;;;0.70;0.70;;;;;;;-7.69;91.02;100188.00;5067747;28;20032;-73
2021/12/20 01:46:23;;;;;;;2.08;0.88;;;;;;;-7.69;90.87;100220.81;5041768;28;20048;-73
2021/12/20 01:48:48;;;;;;;0.95;0.68;;;;;;;-7.73;90.71;100216.84;5034926;28;20033;-73
2021/12/20 01:51:33;;;;;;;2.10;0.90;;;;;;;-7.74;90.65;100217.84;5043921;28;20104;-73
2021/12/20 01:53:59;;;;;;;5.05;1.00;;;;;;;-7.75;91.09;100218.84;5035146;28;20033;-73
2021/12/20 01:56:24;;;;;;;1.02;0.93;;;;;;;-7.77;90.88;100234.19;5039535;28;20484;-73
2021/12/20 01:58:50;;;;;;;1.15;1.05;;;;;;;-7.86;90.34;100251.16;5042900;28;20491;-73
2021/12/20 02:03:45;;;;;;;1.83;0.88;;;;;;;-7.88;90.22;100252.34;5051469;28;20039;-73
2021/12/20 02:06:21;;;;;;;0.47;0.47;;;;;;;-7.91;90.16;100259.69;5053941;28;20060;-73
2021/12/20 02:08:47;;;;;;;0.73;0.70;;;;;;;-7.94;90.15;100245.88;5054456;28;20507;-73
2021/12/20 02:11:13;;;;;;;0.80;0.80;;;;;;;-7.94;90.46;100269.84;5038033;28;20041;-73
2021/12/20 02:13:40;;;;;;;0.88;0.88;;;;;;;-8.03;90.25;100263.69;5043515;28;20051;-73
2021/12/20 02:16:06;;;;;;;1.23;0.80;;;;;;;-8.08;89.98;100267.88;5042651;28;20041;-73
2021/12/20 02:18:32;;;;;;;0.75;0.75;;;;;;;-8.15;89.14;100270.41;5062009;28;20581;-73
2021/12/20 02:20:58;;;;;;;1.63;0.90;;;;;;;-8.17;88.87;100263.56;5035592;28;20108;-73
2021/12/20 02:23:24;;;;;;;1.48;0.88;;;;;;;-8.20;89.17;100273.53;5035901;28;20507;-73
2021/12/20 02:25:50;;;;;;;0.90;0.90;;;;;;;-8.22;89.00;100277.38;5034150;28;20124;-72
2021/12/20 02:28:17;;;;;;;2.75;1.00;;;;;;;-8.26;89.39;100284.88;5038886;28;20124;-73
2021/12/20 02:36:52;;;;;;;1.20;0.90;;;;;;;-8.26;89.74;100300.00;5047348;28;20621;-73
2021/12/20 02:38:46;;;;;;;1.70;1.08;;;;;;;-8.40;89.20;100293.56;5036092;28;20130;-73
2021/12/20 02:41:16;;;;;;;2.33;1.10;;;;;;;-8.42;89.08;100300.88;5043276;28;20081;-73
2021/12/20 02:43:51;;;;;;;1.25;1.00;;;;;;;-8.45;88.94;100308.38;5039851;28;20472;-73
2021/12/20 02:46:49;;;;;;;1.00;0.90;;;;;;;-8.52;88.39;100329.47;5047427;28;20032;-73
2021/12/20 02:49:16;;;;;;;1.48;0.90;;;;;;;-8.58;87.87;100327.47;5065024;28;20037;-73
2021/12/20 02:51:42;;;;;;;0.65;0.63;;;;;;;-8.62;87.91;100323.50;5039517;28;20032;-73
2021/12/20 02:54:10;;;;;;;1.65;0.90;;;;;;;-8.68;87.78;100324.13;5052977;28;20036;-73
2021/12/20 02:56:36;;;;;;;0.73;0.73;;;;;;;-8.73;87.56;100326.47;5032701;28;20048;-73
2021/12/20 02:59:03;;;;;;;0.55;0.55;;;;;;;-8.73;87.19;100329.97;5034848;28;20060;-73
2021/12/20 03:01:30;;;;;;;1.30;1.15;;;;;;;-8.77;87.35;100325.13;5048757;28;20443;-73
2021/12/20 03:03:56;;;;;;;1.40;1.00;;;;;;;-8.77;87.77;100344.59;5068777;28;20616;-73
2021/12/20 03:06:26;;;;;;;0.60;0.60;;;;;;;-8.82;87.01;100337.09;5051467;28;20033;-73
2021/12/20 03:08:54;;;;;;;0.50;0.50;;;;;;;-8.87;86.63;100339.41;5058555;28;20417;-73
2021/12/20 03:11:22;;;;;;;0.50;0.50;;;;;;;-8.95;86.36;100351.84;5054044;28;20064;-73
2021/12/20 03:13:52;;;;;;;1.05;0.90;;;;;;;-9.01;86.29;100334.75;5056068;28;20091;-73
2021/12/20 03:16:18;;;;;;;2.15;1.00;;;;;;;-9.04;85.79;100352.81;5033299;28;20526;-73
2021/12/20 03:18:44;;;;;;;0.60;0.60;;;;;;;-9.09;85.02;100347.16;5032996;28;20041;-73
2021/12/20 03:21:09;;;;;;;0.93;0.80;;;;;;;-9.13;84.42;100347.50;5033375;28;20450;-73
2021/12/20 03:23:35;;;;;;;1.10;0.90;;;;;;;-9.14;84.65;100355.63;5036569;28;20129;-72
2021/12/20 03:26:01;;;;;;;1.95;0.90;;;;;;;-9.19;84.78;100373.88;5047983;28;20534;-72
2021/12/20 03:28:27;;;;;;;1.15;0.70;;;;;;;-9.21;84.76;100370.53;5043591;28;20692;-73
2021/12/20 03:30:53;;;;;;;1.75;1.00;;;;;;;-9.23;84.91;100359.22;5035978;28;20637;-72
2021/12/20 03:33:18;;;;;;;1.67;1.00;;;;;;;-9.31;84.88;100375.16;5043836;28;20049;-72
2021/12/20 03:35:44;;;;;;;1.50;0.90;;;;;;;-9.37;85.41;100368.66;5045882;28;20045;-72
2021/12/20 03:38:09;;;;;;;0.65;0.65;;;;;;;-9.40;85.91;100392.88;5046432;28;20040;-74
2021/12/20 03:40:37;;;;;;;1.45;0.80;;;;;;;-9.45;85.38;100389.84;5049262;28;20037;-73
2021/12/20 03:43:03;;;;;;;1.10;0.82;;;;;;;-9.48;85.04;100382.22;5056360;28;20044;-73
2021/12/20 03:45:29;;;;;;;2.72;0.80;;;;;;;-9.50;84.84;100394.81;5050605;28;20040;-73
2021/12/20 03:47:55;;;;;;;0.77;0.63;;;;;;;-9.54;84.73;100394.31;5037508;28;20041;-73
2021/12/20 03:50:20;;;;;;;0.85;0.50;;;;;;;-9.56;84.61;100393.59;5041819;28;20467;-74
2021/12/20 03:52:46;;;;;;;0.50;0.50;;;;;;;-9.61;83.99;100387.13;5042550;28;20049;-74
2021/12/20 03:55:13;;;;;;;0.70;0.65;;;;;;;-9.64;83.96;100384.78;5038591;28;20124;-74
2021/12/20 03:57:38;;;;;;;0.75;0.63;;;;;;;-9.68;84.70;100391.41;5038939;28;20122;-74
2021/12/20 04:00:07;;;;;;;0.63;0.50;;;;;;;-9.69;84.23;100387.06;5034659;28;20472;-75
2021/12/20 04:02:42;;;;;;;1.08;0.63;;;;;;;-9.69;83.64;100430.38;5039435;28;20040;-74
2021/12/20 04:05:09;;;;;;;0.95;0.60;;;;;;;-9.68;83.66;100415.28;5037117;28;20064;-73
2021/12/20 04:07:34;;;;;;;0.70;0.55;;;;;;;-9.74;83.79;100408.75;5039514;28;20529;-73
2021/12/20 04:10:00;;;;;;;1.10;0.88;;;;;;;-9.77;84.32;100446.25;5047138;28;20071;-73
2021/12/20 04:12:26;;;;;;;0.55;0.43;;;;;;;-9.76;83.97;100437.28;5056782;28;20032;-73
2021/12/20 04:14:51;;;;;;;0.50;0.50;;;;;;;-9.77;83.38;100425.84;5050767;28;20081;-73
2021/12/20 04:17:17;;;;;;;0.20;0.20;;;;;;;-9.76;83.49;100431.97;5049951;28;20061;-74
2021/12/20 04:19:43;;;;;;;0.32;0.32;;;;;;;-9.74;83.57;100443.28;5062029;28;20040;-74
2021/12/20 04:22:08;;;;;;;0.43;0.40;;;;;;;-9.73;82.81;100468.84;5057381;28;20111;-74
2021/12/20 04:24:34;;;;;;;0.40;0.38;;;;;;;-9.76;82.97;100447.91;5035383;28;20033;-73
2021/12/20 04:26:59;;;;;;;0.80;0.43;;;;;;;-9.75;82.82;100460.19;5042638;28;20078;-74
2021/12/20 04:29:27;;;;;;;0.30;0.30;;;;;;;-9.76;82.77;100455.88;5065125;28;20082;-74
2021/12/20 04:31:53;;;;;;;0.90;0.60;;;;;;;-9.78;82.55;100461.34;5044090;28;20077;-74
2021/12/20 04:34:18;;;;;;;1.48;0.50;;;;;;;-9.77;82.94;100462.19;5057665;28;20137;-74
2021/12/20 04:36:44;;;;;;;0.45;0.45;;;;;;;-9.77;83.49;100452.38;5037307;28;20407;-74
2021/12/20 04:39:14;;;;;;;2.40;0.38;;;;;;;-9.78;83.93;100460.50;5039973;28;20440;-74
2021/12/20 04:41:40;;;;;;;1.15;1.10;;;;;;;-9.76;84.43;100472.63;5058187;28;20032;-74
2021/12/20 04:44:06;;;;;;;1.08;0.60;;;;;;;-9.82;84.90;100459.16;5057262;28;20040;-74
2021/12/20 04:46:31;;;;;;;0.73;0.73;;;;;;;-9.82;84.59;100473.25;5058417;28;20560;-74
2021/12/20 04:48:57;;;;;;;1.08;0.75;;;;;;;-9.83;84.71;100462.81;5050926;28;20043;-74
2021/12/20 04:51:23;;;;;;;1.88;0.68;;;;;;;-9.86;84.83;100476.38;5051369;28;20500;-74
2021/12/20 04:53:48;;;;;;;0.45;0.45;;;;;;;-9.88;84.46;100478.38;5036580;28;20086;-74
2021/12/20 04:56:14;;;;;;;0.60;0.60;;;;;;;-9.87;84.12;100485.34;5046134;28;20087;-74
2021/12/20 04:58:39;;;;;;;0.52;0.52;;;;;;;-9.88;84.50;100512.88;5039839;28;20042;-74
2021/12/20 05:01:06;;;;;;;1.20;0.50;;;;;;;-9.91;84.07;100495.41;5033551;28;20048;-74
2021/12/20 05:03:31;;;;;;;0.68;0.68;;;;;;;-9.94;83.69;100494.88;5036924;28;20045;-74
2021/12/20 05:05:57;;;;;;;0.35;0.35;;;;;;;-9.98;83.43;100493.53;5046859;28;20047;-74
2021/12/20 05:08:22;;;;;;;0.50;0.50;;;;;;;-9.97;83.23;100492.53;5060291;28;20056;-74
2021/12/20 05:10:48;;;;;;;0.95;0.90;;;;;;;-9.99;82.66;100502.47;5053874;28;20128;-74
2021/12/20 05:13:14;;;;;;;0.70;0.60;;;;;;;-9.99;83.08;100515.75;5042619;28;20041;-74
2021/12/20 05:15:40;;;;;;;0.90;0.52;;;;;;;-9.98;83.29;100506.78;5056752;28;20511;-75
2021/12/20 05:18:07;;;;;;;2.13;0.65;;;;;;;-10.01;83.49;100509.75;5049532;28;20075;-74
2021/12/20 05:20:33;;;;;;;0.85;0.70;;;;;;;-10.05;83.49;100522.50;5059152;28;20040;-75
2021/12/20 05:22:59;;;;;;;0.40;0.40;;;;;;;-10.09;84.16;100524.59;5054286;28;20061;-75
2021/12/20 05:25:26;;;;;;;0.30;0.30;;;;;;;-10.06;84.03;100526.97;5063285;28;20043;-74
2021/12/20 05:27:52;;;;;;;2.78;1.13;;;;;;;-10.10;83.91;100545.97;5049643;28;20033;-73
2021/12/20 05:30:19;;;;;;;0.68;0.43;;;;;;;-10.16;84.03;100523.53;5048459;28;20068;-75
2021/12/20 05:32:44;;;;;;;1.25;0.60;;;;;;;-10.15;83.50;100530.53;5061749;28;20048;-75
2021/12/20 05:35:11;;;;;;;1.65;1.05;;;;;;;-10.17;82.70;100532.50;5057653;28;20033;-76
2021/12/20 05:37:38;;;;;;;0.95;0.60;;;;;;;-10.20;82.44;100543.41;5059678;28;20073;-76
2021/12/20 05:40:05;;;;;;;0.30;0.30;;;;;;;-10.23;81.15;100543.75;5067000;28;20037;-76
2021/12/20 05:42:31;;;;;;;0.20;0.20;;;;;;;-10.22;79.91;100545.41;5059282;28;20124;-76
2021/12/20 05:44:56;;;;;;;0.50;0.50;;;;;;;-10.26;79.00;100541.38;5056407;28;20037;-75
2021/12/20 05:47:22;;;;;;;2.95;0.90;;;;;;;-10.33;79.00;100576.59;5050168;28;20504;-75
2021/12/20 05:49:49;;;;;;;0.43;0.43;;;;;;;-10.40;78.33;100565.75;5052180;28;20036;-75
2021/12/20 05:52:14;;;;;;;0.45;0.45;;;;;;;-10.41;78.28;100567.59;5071170;28;20498;-75
2021/12/20 05:54:40;;;;;;;0.50;0.50;;;;;;;-10.43;78.28;100566.03;5061151;28;20128;-74
2021/12/20 05:57:06;;;;;;;0.22;0.22;;;;;;;-10.44;78.06;100583.75;5052862;28;20479;-73
2021/12/20 05:59:32;;;;;;;1.05;0.70;;;;;;;-10.42;77.87;100596.88;5067834;28;20048;-73
2021/12/20 06:01:57;;;;;;;7.43;0.68;;;;;;;-10.46;78.09;100583.09;5045673;28;20040;-74
2021/12/20 06:04:23;;;;;;;0.50;0.50;;;;;;;-10.48;77.52;100605.44;5058209;28;20043;-74
2021/12/20 06:06:49;;;;;;;0.52;0.52;;;;;;;-10.49;77.52;100595.81;5070971;28;20125;-75
2021/12/20 06:09:14;;;;;;;0.77;0.55;;;;;;;-10.54;77.50;100592.78;5051149;28;20131;-74
2021/12/20 06:11:40;;;;;;;0.52;0.50;;;;;;;-10.57;77.94;100608.97;5045657;28;20119;-72
2021/12/20 06:14:06;;;;;;;1.70;0.68;;;;;;;-10.60;77.68;100602.13;5052800;28;20037;-74
2021/12/20 06:16:31;;;;;;;1.15;0.80;;;;;;;-10.62;77.47;100632.41;5038164;28;20083;-75
2021/12/20 06:18:57;;;;;;;1.55;0.85;;;;;;;-10.66;77.86;100611.50;5047968;28;20539;-75
2021/12/20 06:21:23;;;;;;;0.93;0.50;;;;;;;-10.71;78.24;100612.94;5040247;28;20065;-74
2021/12/20 06:23:49;;;;;;;0.60;0.60;;;;;;;-10.70;77.76;100615.44;5049089;28;20041;-75
2021/12/20 06:26:15;;;;;;;1.48;0.88;;;;;;;-10.71;77.86;100632.31;5053003;28;20424;-74
2021/12/20 06:28:41;;;;;;;0.35;0.32;;;;;;;-10.73;77.73;100623.69;5042828;28;20041;-73
2021/12/20 06:31:06;;;;;;;0.47;0.40;;;;;;;-10.74;77.51;100626.47;5063466;28;20036;-74
2021/12/20 06:33:32;;;;;;;0.75;0.75;;;;;;;-10.78;78.01;100625.91;5052550;28;20098;-75
2021/12/20 06:35:58;;;;;;;1.20;0.70;;;;;;;-10.81;78.32;100635.97;5040840;28;20564;-76
2021/12/20 06:38:23;;;;;;;0.30;0.30;;;;;;;-10.82;77.77;100629.81;5053022;28;20051;-83
2021/12/20 06:40:51;;;;;;;0.60;0.60;;;;;;;-10.84;77.78;100631.78;5053221;28;20056;-76
2021/12/20 06:43:17;;;;;;;0.65;0.35;;;;;;;-10.86;77.78;100639.06;5034061;28;20034;-77
2021/12/20 06:45:43;;;;;;;0.93;0.93;;;;;;;-10.85;77.97;100638.06;5067829;28;20487;-77
2021/12/20 06:48:09;;;;;;;1.17;0.80;;;;;;;-10.87;78.42;100642.69;5059909;28;20115;-77
2021/12/20 06:50:35;;;;;;;1.10;0.60;;;;;;;-10.88;78.46;100650.78;5061408;28;20184;-77
2021/12/20 06:53:01;;;;;;;3.40;1.25;;;;;;;-10.91;78.53;100656.38;5064953;28;20044;-75
2021/12/20 06:55:26;;;;;;;0.35;0.35;;;;;;;-10.92;78.12;100663.47;5045501;28;20048;-78
2021/12/20 06:57:52;;;;;;;2.22;0.88;;;;;;;-10.95;78.18;100656.63;5065846;28;20041;-77
2021/12/20 07:00:19;;;;;;;1.38;0.80;;;;;;;-10.96;78.28;100665.56;5060696;28;20052;-75
2021/12/20 07:02:45;;;;;;;1.80;0.50;;;;;;;-10.96;78.56;100670.84;5059667;28;20045;-77
2021/12/20 07:05:10;;;;;;;0.47;0.47;;;;;;;-10.90;78.12;100677.41;5067932;28;20036;-75
2021/12/20 07:07:36;;;;;;;1.42;0.85;;;;;;;-10.90;78.22;100666.81;5055435;28;20106;-75
2021/12/20 07:10:05;;;;;;;0.50;0.32;;;;;;;-10.89;77.76;100671.13;5065503;28;20064;-75
2021/12/20 07:12:36;;;;;;;0.85;0.82;;;;;;;-10.87;77.68;100679.78;5060277;28;20051;-76
2021/12/20 07:15:03;;;;;;;0.85;0.70;;;;;;;-10.89;77.16;100694.16;5057177;28;20049;-76
2021/12/20 07:17:30;;;;;;;1.08;0.65;;;;;;;-10.89;77.46;100679.09;5038544;28;20072;-75
2021/12/20 07:19:57;;;;;;;1.05;0.75;;;;;;;-10.89;77.64;100686.22;5066302;28;20040;-77
2021/12/20 07:22:24;;;;;;;0.20;0.20;;;;;;;-10.92;77.12;100689.16;5057097;28;20049;-76
2021/12/20 07:24:50;;;;;;;2.70;0.75;;;;;;;-10.95;76.76;100677.00;5064854;28;20043;-75
2021/12/20 07:27:18;;;;;;;0.32;0.32;;;;;;;-10.93;76.19;100677.72;5055422;28;20040;-76
2021/12/20 07:29:44;;;;;;;0.63;0.50;;;;;;;-10.91;75.42;100691.66;5040054;28;20041;-76
2021/12/20 07:32:11;;;;;;;0.50;0.50;;;;;;;-10.88;75.04;100687.88;5060973;28;20041;-76
2021/12/20 07:34:38;;;;;;;0.85;0.50;;;;;;;-10.90;74.98;100695.13;5053859;28;20040;-76
2021/12/20 07:37:04;;;;;;;0.50;0.50;;;;;;;-10.93;74.83;100696.25;5056584;28;20056;-76
2021/12/20 07:39:30;;;;;;;1.35;0.80;;;;;;;-10.93;75.48;100700.69;5053572;28;20045;-76
2021/12/20 07:41:56;;;;;;;1.48;0.80;;;;;;;-10.96;75.54;100707.13;5065691;28;20059;-76
2021/12/20 07:44:22;;;;;;;0.93;0.93;;;;;;;-10.98;74.92;100701.13;5060287;28;20090;-76
2021/12/20 07:46:47;;;;;;;2.85;1.10;;;;;;;-10.98;74.91;100699.31;5065191;28;20044;-76
2021/12/20 07:49:13;;;;;;;0.50;0.50;;;;;;;-10.96;74.94;100713.25;5055414;28;20575;-75
2021/12/20 07:51:39;;;;;;;1.63;0.40;;;;;;;-10.97;74.69;100706.28;5069876;28;20498;-76
2021/12/20 07:54:04;;;;;;;0.98;0.47;;;;;;;-10.95;74.46;100712.28;5046400;28;20523;-76
2021/12/20 07:56:30;;;;;;;1.85;1.00;;;;;;;-10.97;73.75;100711.59;5052141;28;20036;-76
2021/12/20 07:58:56;;;;;;;1.15;0.70;;;;;;;-10.94;73.66;100707.81;5057641;28;20135;-76
2021/12/20 08:01:21;;;;;;;0.47;0.47;;;;;;;-10.92;73.44;100718.28;5067636;28;20126;-75
2021/12/20 08:03:47;;;;;;;0.88;0.68;;;;;;;-10.90;73.45;100714.53;5050752;28;20036;-76
2021/12/20 08:06:13;;;;;;;1.20;0.55;;;;;;;-10.89;73.57;100724.16;5041446;28;20036;-76
2021/12/20 08:08:40;;;;;;;1.60;1.17;;;;;;;-10.90;73.93;100725.13;5059484;28;20194;-76
2021/12/20 08:11:06;;;;;;;1.15;0.57;;;;;;;-10.86;74.28;100721.22;5044826;28;20033;-75
2021/12/20 08:13:32;;;;;;;0.40;0.40;;;;;;;-10.81;73.91;100734.88;5039877;28;20037;-76
2021/12/20 08:15:58;;;;;;;1.15;0.77;;;;;;;-10.81;74.75;100720.78;5058249;28;20045;-76
2021/12/20 08:18:24;;;;;;;0.80;0.68;;;;;;;-10.82;76.10;100725.25;5049411;28;20071;-75
2021/12/20 08:20:51;;;;;;;0.35;0.35;;;;;;;-10.84;76.73;100740.44;5039549;28;20041;-76
2021/12/20 08:23:17;;;;;;;0.70;0.52;;;;;;;-10.82;77.81;100730.53;5050414;28;20160;-76
2021/12/20 08:25:43;;;;;;;0.95;0.88;;;;;;;-10.77;78.60;100735.41;5061380;28;20035;-75
2021/12/20 08:28:09;;;;;;;0.93;0.65;;;;;;;-10.76;80.00;100737.94;5040167;28;20033;-76
2021/12/20 08:30:35;;;;;;;1.20;0.93;;;;;;;-10.77;80.62;100738.06;5060631;28;20036;-76
2021/12/20 08:33:01;;;;;;;0.30;0.30;;;;;;;-10.79;81.04;100740.84;5038105;28;20044;-75
2021/12/20 08:35:27;;;;;;;1.17;0.90;;;;;;;-10.79;81.34;100746.16;5068534;28;20037;-75
2021/12/20 08:37:53;;;;;;;1.90;0.80;;;;;;;-10.75;81.74;100742.28;5037617;28;20028;-76
2021/12/20 08:40:20;;;;;;;3.25;1.27;;;;;;;-10.72;81.90;100744.63;5016759;28;20059;-76
2021/12/20 08:42:46;;;;;;;1.90;0.88;;;;;;;-10.68;82.29;100742.53;5070415;28;20139;-76
2021/12/20 08:45:13;;;;;;;0.82;0.73;;;;;;;-10.66;82.66;100754.66;5050734;28;20135;-76
2021/12/20 08:47:39;;;;;;;1.08;0.98;;;;;;;-10.65;82.83;100743.06;5066002;28;20037;-76
2021/12/20 08:50:09;;;;;;;1.05;0.80;;;;;;;-10.59;82.85;100730.22;5056953;28;20035;-76
2021/12/20 08:52:35;;;;;;;4.88;1.48;;;;;;;-10.55;83.00;100742.25;5070191;28;20040;-75
2021/12/20 08:55:00;;;;;;;3.20;1.05;;;;;;;-10.53;83.39;100741.09;5065837;28;20090;-76
2021/12/20 08:57:26;;;;;;;1.42;1.33;;;;;;;-10.47;83.65;100750.31;5067172;28;20082;-75
2021/12/20 08:59:52;;;;;;;3.03;1.38;;;;;;;-10.46;83.36;100750.16;5053976;28;20407;-76
2021/12/20 09:02:17;;;;;;;2.05;1.17;;;;;;;-10.41;83.66;100752.41;5069203;28;20064;-76
2021/12/20 09:04:43;;;;;;;0.32;0.32;;;;;;;-10.39;83.57;100758.41;5058384;28;20539;-76
2021/12/20 09:07:14;;;;;;;0.30;0.30;;;;;;;-10.43;83.45;100756.97;5064836;28;20036;-75
2021/12/20 09:09:43;;;;;;;0.60;0.60;;;;;;;-10.45;83.30;100761.59;5052727;28;20059;-76
2021/12/20 09:12:15;;;;;;;1.17;1.05;;;;;;;-10.46;83.78;100765.22;5057775;28;20475;-76
2021/12/20 09:14:42;;;;;;;3.63;0.77;;;;;;;-10.46;84.10;100768.72;5048423;28;20037;-75
2021/12/20 09:17:07;;;;;;;1.45;0.90;;;;;;;-10.48;84.60;100770.69;5048254;28;20078;-75
2021/12/20 09:19:35;;;;;;;2.20;0.88;;;;;;;-10.49;85.06;100768.16;5055296;28;20549;-75
2021/12/20 09:22:10;;;;;;;0.75;0.70;;;;;;;-10.51;84.93;100751.56;5059996;28;20040;-75
2021/12/20 09:24:38;;;;;;;1.02;0.68;;;;;;;-10.54;84.77;100749.22;5072621;28;20064;-75
2021/12/20 09:27:04;;;;;;;1.42;0.55;;;;;;;-10.53;85.05;100746.41;5042090;28;20095;-75
2021/12/20 09:29:30;;;;;;;2.53;1.15;;;;;;;-10.47;85.33;100745.00;5056927;28;20033;-75
2021/12/20 09:31:57;;;;;;;1.20;1.10;;;;;;;-10.42;85.23;100750.69;5057529;28;20486;-75
2021/12/20 09:34:22;;;;;;;1.40;0.77;;;;;;;-10.39;85.10;100747.78;5053128;28;20045;-75
2021/12/20 09:36:48;;;;;;;1.55;0.68;;;;;;;-10.30;85.05;100754.88;5066614;28;20036;-75
2021/12/20 09:39:16;;;;;;;3.50;2.00;;;;;;;-10.19;85.30;100757.31;5042101;28;20041;-76
2021/12/20 09:44:10;;;;;;;2.42;1.30;;;;;;;-10.16;83.99;100754.38;5072077;28;20037;-76
2021/12/20 09:46:37;;;;;;;1.48;1.00;;;;;;;-10.09;84.20;100757.28;5064136;28;20498;-75
2021/12/20 09:49:04;;;;;;;0.60;0.57;;;;;;;-10.13;83.90;100759.38;5040113;28;20044;-76
2021/12/20 09:51:29;;;;;;;1.40;0.70;;;;;;;-10.16;83.59;100757.03;5054060;28;20057;-75
2021/12/20 09:53:55;;;;;;;2.78;0.75;;;;;;;-10.15;83.97;100763.19;5072527;28;20597;-76
2021/12/20 09:56:26;;;;;;;5.72;1.75;;;;;;;-10.15;84.45;100758.69;5040912;28;20045;-76
2021/12/20 09:58:54;;;;;;;2.97;1.10;;;;;;;-10.17;84.97;100760.66;5058674;28;20437;-77
2021/12/20 10:01:21;;;;;;;3.42;1.25;;;;;;;-10.10;85.47;100768.88;5068416;28;20052;-76
2021/12/20 10:03:53;;;;;;;2.67;1.25;;;;;;;-10.10;85.82;100764.41;5067847;28;20112;-76
2021/12/20 10:06:19;;;;;;;2.63;0.95;;;;;;;-10.07;85.95;100763.28;5053053;28;20094;-76
2021/12/20 10:08:53;;;;;;;1.85;1.13;;;;;;;-10.06;85.97;100767.63;5064352;28;20191;-76
2021/12/20 10:11:24;;;;;;;0.65;0.65;;;;;;;-10.10;86.01;100756.44;5073333;28;20158;-76
2021/12/20 10:14:02;;;;;;;1.92;1.20;;;;;;;-10.06;86.23;100760.50;5067271;28;20041;-76
2021/12/20 10:16:28;;;;;;;2.30;1.40;;;;;;;-10.04;86.16;100752.41;5045162;28;20049;-75
2021/12/20 10:18:54;;;;;;;2.72;1.30;;;;;;;-10.02;86.44;100758.38;5050861;28;20072;-83
2021/12/20 10:21:19;;;;;;;1.50;1.17;;;;;;;-9.97;86.86;100758.78;5050991;28;20190;-83
2021/12/20 10:23:48;;;;;;;2.17;0.90;;;;;;;-9.96;86.43;100759.63;5039707;28;20040;-81
2021/12/20 10:26:20;;;;;;;0.90;0.90;;;;;;;-9.96;86.13;100764.91;5072176;28;20120;-81
2021/12/20 10:28:52;;;;;;;3.40;0.77;;;;;;;-9.90;86.45;100753.72;5058097;28;20044;-80
2021/12/20 10:31:21;;;;;;;1.38;1.00;;;;;;;-9.82;86.54;100767.94;5044508;28;20404;-81
2021/12/20 10:34:13;;;;;;;0.63;0.63;;;;;;;-9.76;86.75;100761.19;5023740;28;20561;-81
2021/12/20 10:36:57;;;;;;;1.10;1.00;;;;;;;-9.68;87.22;100760.47;5044889;28;20132;-81
2021/12/20 10:39:37;;;;;;;2.53;1.00;;;;;;;-9.68;87.35;100757.81;5033882;28;20045;-80
2021/12/20 10:42:25;;;;;;;0.80;0.80;;;;;;;-9.75;87.77;100766.34;5071770;28;20051;-80
2021/12/20 10:45:14;;;;;;;4.72;1.38;;;;;;;-9.84;87.62;100769.06;5062441;28;20518;-80
2021/12/20 10:47:46;;;;;;;0.45;0.45;;;;;;;-9.92;87.36;100766.28;5036547;28;20104;-81
2021/12/20 10:50:29;;;;;;;0.60;0.52;;;;;;;-10.05;87.19;100764.81;5047256;28;20036;-83
2021/12/20 10:53:17;;;;;;;0.65;0.65;;;;;;;-10.13;86.79;100759.38;5050014;28;20052;-81
2021/12/20 10:55:52;;;;;;;0.55;0.55;;;;;;;-10.32;86.29;100767.44;5055373;28;20064;-81
2021/12/20 10:58:34;;;;;;;0.50;0.50;;;;;;;-10.42;86.15;100771.91;5071674;28;20044;-80
2021/12/20 11:04:10;;;;;;;1.05;0.82;;;;;;;-10.66;85.82;100762.63;5042279;28;20049;-82
2021/12/20 11:09:09;;;;;;;0.50;0.50;;;;;;;-10.76;85.78;100761.81;5053552;28;20474;-81
2021/12/20 11:11:39;;;;;;;2.88;1.17;;;;;;;-10.74;86.14;100765.16;5066203;28;20037;-81
2021/12/20 11:14:05;;;;;;;;;;;;;;;-10.70;86.31;100771.84;5073018;28;20058;-82
2021/12/20 11:16:35;;;;;;;1.20;0.77;;;;;;;-10.70;86.41;100755.94;5040668;28;20403;-82
2021/12/20 11:19:06;;;;;;;2.13;1.10;;;;;;;-10.76;86.30;100764.47;5043707;28;20571;-82
2021/12/20 11:21:57;;;;;;;0.85;0.85;;;;;;;-10.78;86.22;100768.19;5070108;28;20119;-82
2021/12/20 11:24:28;;;;;;;0.88;0.73;;;;;;;-10.80;86.29;100765.69;5050965;28;20148;-82
2021/12/20 11:26:55;;;;;;;2.92;1.20;;;;;;;-10.82;86.22;100762.34;5045001;28;20072;-83
2021/12/20 11:29:20;;;;;;;1.52;0.98;;;;;;;-10.83;86.19;100768.63;5043039;28;20456;-82
2021/12/20 11:31:47;;;;;;;0.98;0.85;;;;;;;-10.83;86.41;100771.28;5046238;28;20076;-80
2021/12/20 11:34:13;;;;;;;4.28;1.13;;;;;;;-10.83;86.03;100763.31;5043547;28;20029;-82
2021/12/20 11:36:39;;;;;;;1.30;1.20;;;;;;;-10.86;86.58;100757.47;5047021;28;20076;-79
2021/12/20 11:39:06;;;;;;;2.03;1.50;;;;;;;-10.89;86.56;100768.38;5049207;28;20047;-76
2021/12/20 11:41:33;;;;;;;0.68;0.68;;;;;;;-10.97;86.58;100766.38;5039709;28;20037;-77